Time;durP1;ratioP1;P1;durP2;ratioP2;P2;SDS_P1;SDS_P2;PMS_P1;PMS_P2;Temp;Humidity;BMP_temperature;BMP_pressure;BME280_temperature;BME280_humidity;BME280_pressure;Samples;Min_cycle;Max_cycle;Signal;HPM_P1;HPM_P2
2021/11/14 00:02:23;;;;;;;142.02;50.22;;;10.00;99.90;;;;;;5066698;28;20406;-76
2021/11/14 00:04:49;;;;;;;113.60;46.90;;;10.00;99.90;;;;;;5049552;28;20041;-77
2021/11/14 00:07:17;;;;;;;100.85;44.38;;;10.00;99.90;;;;;;5065791;28;20155;-77
2021/11/14 00:09:43;;;;;;;91.13;44.15;;;10.00;99.90;;;;;;5064266;28;20041;-77
2021/11/14 00:12:09;;;;;;;136.50;51.08;;;10.00;99.90;;;;;;5080888;28;20112;-77
2021/11/14 00:14:34;;;;;;;72.07;41.95;;;10.00;99.90;;;;;;5064142;28;20049;-77
2021/11/14 00:17:00;;;;;;;108.30;46.25;;;10.00;99.90;;;;;;5062348;28;20040;-77
2021/11/14 00:19:26;;;;;;;130.27;49.75;;;10.00;99.90;;;;;;5063069;28;20051;-77
2021/11/14 00:21:52;;;;;;;138.55;52.17;;;10.00;99.90;;;;;;5062383;28;20981;-77
2021/11/14 00:24:17;;;;;;;135.65;51.13;;;10.00;99.90;;;;;;5049657;28;20028;-76
2021/11/14 00:26:44;;;;;;;134.20;50.88;;;10.00;99.90;;;;;;5064917;28;20055;-77
2021/11/14 00:29:11;;;;;;;124.97;50.05;;;10.00;99.90;;;;;;5060189;28;20069;-76
2021/11/14 00:31:38;;;;;;;100.30;45.47;;;9.90;99.90;;;;;;5062835;28;20037;-77
2021/11/14 00:34:05;;;;;;;125.60;48.58;;;10.00;99.90;;;;;;5061801;28;20033;-77
2021/11/14 00:36:32;;;;;;;82.32;44.92;;;10.00;99.90;;;;;;5062186;28;20513;-77
2021/11/14 00:38:58;;;;;;;79.63;44.92;;;10.00;99.90;;;;;;5058066;28;20089;-77
2021/11/14 00:41:25;;;;;;;127.18;51.80;;;10.00;99.90;;;;;;5092526;28;20041;-77
2021/11/14 00:43:52;;;;;;;143.02;51.58;;;10.00;99.90;;;;;;5060281;28;20123;-77
2021/11/14 00:46:19;;;;;;;172.57;55.67;;;10.00;99.90;;;;;;5058877;28;20048;-77
2021/11/14 00:48:45;;;;;;;175.40;56.85;;;10.00;99.90;;;;;;5058859;28;20132;-77
2021/11/14 00:51:13;;;;;;;246.02;66.32;;;9.90;99.90;;;;;;5093425;28;20140;-77
2021/11/14 00:53:38;;;;;;;158.55;57.78;;;9.90;99.90;;;;;;5060324;28;20135;-77
2021/11/14 00:56:04;;;;;;;93.32;47.78;;;10.00;99.90;;;;;;5060674;28;20140;-77
2021/11/14 00:58:30;;;;;;;129.43;53.08;;;9.90;99.90;;;;;;5056957;28;20045;-77
2021/11/14 01:00:57;;;;;;;117.88;52.80;;;10.00;99.90;;;;;;5063276;28;20048;-77
2021/11/14 01:03:23;;;;;;;101.80;48.72;;;10.00;99.90;;;;;;5063716;28;20387;-77
2021/11/14 01:05:50;;;;;;;112.63;51.45;;;10.00;99.90;;;;;;5061081;28;20044;-77
2021/11/14 01:08:16;;;;;;;139.98;54.22;;;9.90;99.90;;;;;;5059486;28;20094;-77
2021/11/14 01:10:50;;;;;;;147.90;57.08;;;10.00;99.90;;;;;;5064060;28;20583;-77
2021/11/14 01:13:16;;;;;;;124.88;52.58;;;9.90;99.90;;;;;;5061463;28;20521;-77
2021/11/14 01:15:45;;;;;;;141.60;54.92;;;9.90;99.90;;;;;;5061576;28;20044;-77
2021/11/14 01:18:13;;;;;;;139.82;56.90;;;10.00;99.90;;;;;;5088868;28;20044;-77
2021/11/14 01:20:41;;;;;;;131.20;54.25;;;9.90;99.90;;;;;;5059285;28;20391;-77
2021/11/14 01:23:09;;;;;;;123.88;52.92;;;9.90;99.90;;;;;;5057744;28;20044;-77
2021/11/14 01:25:35;;;;;;;108.43;50.80;;;9.90;99.90;;;;;;5060388;28;20045;-76
2021/11/14 01:28:01;;;;;;;104.90;49.60;;;9.90;99.90;;;;;;5057328;28;21004;-76
2021/11/14 01:30:35;;;;;;;123.93;54.08;;;9.90;99.90;;;;;;5059827;28;20036;-76
2021/11/14 01:33:05;;;;;;;108.50;50.37;;;9.90;99.90;;;;;;5092242;28;20051;-77
2021/11/14 01:35:31;;;;;;;89.65;46.50;;;9.90;99.90;;;;;;5058649;28;20044;-77
2021/11/14 01:37:57;;;;;;;94.10;47.50;;;9.90;99.90;;;;;;5057826;28;20047;-77
2021/11/14 01:40:31;;;;;;;89.22;45.05;;;9.90;99.90;;;;;;5059653;28;20396;-76
2021/11/14 01:42:58;;;;;;;81.93;43.30;;;9.90;99.90;;;;;;5058565;28;20041;-77
2021/11/14 01:45:24;;;;;;;106.18;49.67;;;10.00;99.90;;;;;;5062853;28;20151;-77
2021/11/14 01:47:50;;;;;;;114.75;50.88;;;9.90;99.90;;;;;;5057628;28;20046;-77
2021/11/14 01:50:17;;;;;;;98.43;47.10;;;9.90;99.90;;;;;;5060925;28;20044;-77
2021/11/14 01:52:45;;;;;;;107.03;47.08;;;9.90;99.90;;;;;;5058380;28;20040;-77
2021/11/14 01:55:13;;;;;;;92.45;44.10;;;10.00;99.90;;;;;;5060042;28;20273;-76
2021/11/14 01:57:39;;;;;;;109.50;46.80;;;10.00;99.90;;;;;;5055270;28;20075;-77
2021/11/14 02:00:15;;;;;;;87.57;41.50;;;9.90;99.90;;;;;;5089831;28;20120;-77
2021/11/14 02:02:41;;;;;;;89.90;43.58;;;9.90;99.90;;;;;;5059516;28;20032;-77
2021/11/14 02:05:09;;;;;;;90.20;42.63;;;9.90;99.90;;;;;;5061011;28;20086;-76
2021/11/14 02:07:35;;;;;;;76.88;39.50;;;9.90;99.90;;;;;;5055684;28;20439;-76
2021/11/14 02:10:01;;;;;;;84.25;42.35;;;9.90;99.90;;;;;;5060218;28;20132;-76
2021/11/14 02:12:26;;;;;;;68.85;40.13;;;9.90;99.90;;;;;;5056652;28;20059;-76
2021/11/14 02:14:52;;;;;;;75.72;39.55;;;9.90;99.90;;;;;;5057117;28;20059;-76
2021/11/14 02:17:18;;;;;;;67.22;38.47;;;9.90;99.90;;;;;;5057061;28;20044;-76
2021/11/14 02:19:52;;;;;;;75.82;39.22;;;9.90;99.90;;;;;;5042567;28;20045;-76
2021/11/14 02:22:18;;;;;;;68.50;38.80;;;9.90;99.90;;;;;;5060841;28;20032;-77
2021/11/14 02:24:45;;;;;;;76.10;40.42;;;9.90;99.90;;;;;;5059389;28;20131;-76
2021/11/14 02:27:11;;;;;;;74.60;38.88;;;9.90;99.90;;;;;;5058075;28;20091;-76
2021/11/14 02:29:37;;;;;;;75.97;38.90;;;9.90;99.90;;;;;;5055082;28;20743;-76
2021/11/14 02:32:03;;;;;;;65.90;38.08;;;9.90;99.90;;;;;;5057777;28;20041;-76
2021/11/14 02:34:29;;;;;;;73.10;39.88;;;10.00;99.90;;;;;;5057879;28;20441;-77
2021/11/14 02:36:54;;;;;;;63.95;36.42;;;10.00;99.90;;;;;;5058600;28;20091;-76
2021/11/14 02:39:20;;;;;;;71.25;38.10;;;9.90;99.90;;;;;;5056469;28;20043;-76
2021/11/14 02:41:46;;;;;;;72.43;38.42;;;9.90;99.90;;;;;;5056071;28;20162;-76
2021/11/14 02:44:12;;;;;;;70.40;39.80;;;9.90;99.90;;;;;;5060053;28;20052;-76
2021/11/14 02:46:38;;;;;;;66.57;37.05;;;10.00;99.90;;;;;;5043821;28;20040;-76
2021/11/14 02:49:04;;;;;;;61.78;36.22;;;10.00;99.90;;;;;;5056438;28;20490;-76
2021/11/14 02:51:31;;;;;;;61.88;37.53;;;10.00;99.90;;;;;;5058343;28;20123;-76
2021/11/14 02:53:58;;;;;;;70.88;38.15;;;9.90;99.90;;;;;;5057713;28;20124;-76
2021/11/14 02:56:25;;;;;;;58.72;35.97;;;9.90;99.90;;;;;;5060312;28;20473;-76
2021/11/14 02:58:51;;;;;;;58.72;35.92;;;9.90;99.90;;;;;;5055765;28;20047;-76
2021/11/14 03:01:21;;;;;;;61.50;36.88;;;9.90;99.90;;;;;;5055725;28;20041;-76
2021/11/14 03:03:50;;;;;;;52.72;34.08;;;9.90;99.90;;;;;;5090310;28;20041;-76
2021/11/14 03:06:15;;;;;;;56.35;35.92;;;9.90;99.90;;;;;;5057665;28;20124;-76
2021/11/14 03:08:41;;;;;;;56.53;36.38;;;9.90;99.90;;;;;;5057472;28;20546;-77
2021/11/14 03:11:08;;;;;;;52.35;35.10;;;9.90;99.90;;;;;;5064457;28;20063;-76
2021/11/14 03:13:34;;;;;;;59.67;36.42;;;9.80;99.90;;;;;;5059673;28;20044;-76
2021/11/14 03:16:03;;;;;;;63.15;37.30;;;9.80;99.90;;;;;;5062728;28;20084;-76
2021/11/14 03:18:29;;;;;;;57.58;35.70;;;9.80;99.90;;;;;;5058186;28;20087;-77
2021/11/14 03:20:56;;;;;;;46.85;33.45;;;9.80;99.90;;;;;;5062402;28;20064;-77
2021/11/14 03:23:25;;;;;;;53.35;34.63;;;9.80;99.90;;;;;;5062525;28;20036;-76
2021/11/14 03:25:52;;;;;;;56.63;35.20;;;9.90;99.90;;;;;;5063404;28;20043;-76
2021/11/14 03:28:18;;;;;;;53.28;33.78;;;9.80;99.90;;;;;;5059851;28;20068;-77
2021/11/14 03:30:45;;;;;;;48.63;32.72;;;9.80;99.90;;;;;;5096675;28;20051;-76
2021/11/14 03:33:13;;;;;;;54.30;33.78;;;9.80;99.90;;;;;;5067777;28;20374;-77
2021/11/14 03:35:57;;;;;;;52.80;32.78;;;9.70;99.90;;;;;;5097342;28;20041;-76
2021/11/14 03:38:28;;;;;;;54.80;32.90;;;9.70;99.90;;;;;;5060888;28;20041;-76
2021/11/14 03:40:54;;;;;;;56.72;35.30;;;9.70;99.90;;;;;;5064261;28;20079;-77
2021/11/14 03:43:19;;;;;;;63.55;35.45;;;9.70;99.90;;;;;;5066373;28;20072;-77
2021/11/14 03:45:45;;;;;;;56.75;34.83;;;9.70;99.90;;;;;;5063930;28;20079;-76
2021/11/14 03:48:11;;;;;;;64.63;35.78;;;9.60;99.90;;;;;;5062874;28;20032;-76
2021/11/14 03:50:37;;;;;;;70.72;38.00;;;9.80;99.90;;;;;;5065567;28;20951;-76
2021/11/14 03:53:04;;;;;;;70.68;37.92;;;9.70;99.90;;;;;;5095481;28;20049;-77
2021/11/14 03:55:29;;;;;;;69.35;37.08;;;9.60;99.90;;;;;;5066851;28;20044;-76
2021/11/14 03:57:55;;;;;;;61.67;36.00;;;9.70;99.90;;;;;;5060146;28;20068;-77
2021/11/14 04:00:27;;;;;;;57.80;34.78;;;9.70;99.90;;;;;;5060297;28;20040;-76
2021/11/14 04:02:55;;;;;;;57.55;36.00;;;9.70;99.90;;;;;;5066182;28;20094;-77
2021/11/14 04:05:22;;;;;;;65.95;35.72;;;9.70;99.90;;;;;;5066550;28;20048;-77
2021/11/14 04:07:48;;;;;;;62.10;35.30;;;9.60;99.90;;;;;;5059193;28;20082;-77
2021/11/14 04:10:14;;;;;;;72.57;37.80;;;9.60;99.90;;;;;;5065057;28;20040;-76
2021/11/14 04:12:41;;;;;;;78.45;38.97;;;9.60;99.90;;;;;;5062582;28;20040;-76
2021/11/14 04:15:09;;;;;;;69.32;37.83;;;9.60;99.90;;;;;;5063232;28;20086;-77
2021/11/14 04:17:35;;;;;;;77.13;37.97;;;9.60;99.90;;;;;;5091862;28;20052;-77
2021/11/14 04:20:06;;;;;;;78.68;39.00;;;9.60;99.90;;;;;;5064760;28;20075;-76
2021/11/14 04:22:32;;;;;;;81.38;38.45;;;9.60;99.90;;;;;;5062838;28;20056;-76
2021/11/14 04:24:58;;;;;;;89.38;41.00;;;9.50;99.90;;;;;;5049353;28;20036;-77
2021/11/14 04:27:24;;;;;;;92.38;40.70;;;9.50;99.90;;;;;;5062213;28;20079;-77
2021/11/14 04:29:49;;;;;;;110.10;44.08;;;9.50;99.90;;;;;;5060504;28;20037;-77
2021/11/14 04:32:15;;;;;;;87.20;39.40;;;9.50;99.90;;;;;;5063834;28;20037;-77
2021/11/14 04:34:41;;;;;;;107.32;43.88;;;9.50;99.90;;;;;;5064048;28;20058;-77
2021/11/14 04:37:07;;;;;;;122.88;46.45;;;9.50;99.90;;;;;;5061474;28;20048;-77
2021/11/14 04:39:33;;;;;;;123.25;45.20;;;9.50;99.90;;;;;;5045149;28;20086;-77
2021/11/14 04:42:02;;;;;;;130.95;47.78;;;9.40;99.90;;;;;;5064464;28;20037;-76
2021/11/14 04:44:29;;;;;;;133.07;45.33;;;9.40;99.90;;;;;;5062006;28;20040;-77
2021/11/14 04:46:54;;;;;;;116.82;44.83;;;9.40;99.90;;;;;;5061707;28;20107;-77
2021/11/14 04:49:20;;;;;;;132.95;46.42;;;9.40;99.90;;;;;;5060941;28;20079;-76
2021/11/14 04:51:50;;;;;;;166.82;51.67;;;9.40;99.90;;;;;;5064362;28;20083;-76
2021/11/14 04:54:18;;;;;;;126.05;47.50;;;9.40;99.90;;;;;;5062790;28;20099;-77
2021/11/14 04:56:44;;;;;;;109.63;44.08;;;9.30;99.90;;;;;;5062830;28;20021;-77
2021/11/14 04:59:10;;;;;;;119.95;45.78;;;9.30;99.90;;;;;;5060144;28;20032;-76
2021/11/14 05:01:35;;;;;;;107.63;44.28;;;9.30;99.90;;;;;;5063532;28;20056;-76
2021/11/14 05:04:02;;;;;;;116.78;46.67;;;9.30;99.90;;;;;;5097071;28;20051;-77
2021/11/14 05:06:27;;;;;;;118.25;45.35;;;9.30;99.90;;;;;;5066678;28;20055;-77
2021/11/14 05:08:53;;;;;;;121.07;47.22;;;9.30;99.90;;;;;;5058816;28;20486;-76
2021/11/14 05:11:19;;;;;;;120.28;46.88;;;9.30;99.90;;;;;;5063226;28;20068;-77
2021/11/14 05:13:44;;;;;;;117.20;45.92;;;9.20;99.90;;;;;;5063771;28;20461;-77
2021/11/14 05:16:10;;;;;;;121.45;48.05;;;9.30;99.90;;;;;;5063201;28;20039;-76
2021/11/14 05:18:36;;;;;;;97.47;42.15;;;9.30;99.90;;;;;;5059455;28;20094;-76
2021/11/14 05:21:02;;;;;;;124.05;46.60;;;9.20;99.90;;;;;;5062733;28;20398;-76
2021/11/14 05:23:28;;;;;;;101.07;42.97;;;9.30;99.90;;;;;;5063921;28;20036;-77
2021/11/14 05:25:53;;;;;;;85.85;38.55;;;9.30;99.90;;;;;;5065270;28;20043;-76
2021/11/14 05:28:19;;;;;;;89.10;38.80;;;9.30;99.90;;;;;;5059769;28;20628;-77
2021/11/14 05:30:45;;;;;;;83.43;37.05;;;9.20;99.90;;;;;;5062953;28;20071;-76
2021/11/14 05:33:12;;;;;;;83.68;37.50;;;9.30;99.90;;;;;;5065795;28;20414;-77
2021/11/14 05:35:38;;;;;;;79.53;35.95;;;9.30;99.90;;;;;;5062915;28;20458;-76
2021/11/14 05:38:05;;;;;;;70.90;33.60;;;9.30;99.90;;;;;;5060048;28;20033;-77
2021/11/14 05:40:31;;;;;;;74.43;33.60;;;9.30;99.90;;;;;;5061803;28;20064;-77
2021/11/14 05:42:57;;;;;;;63.90;32.67;;;9.30;99.90;;;;;;5061617;28;20140;-77
2021/11/14 05:45:23;;;;;;;63.00;30.85;;;9.30;99.90;;;;;;5064556;28;20426;-77
2021/11/14 05:47:49;;;;;;;60.85;31.10;;;9.30;99.90;;;;;;5058416;28;20068;-77
2021/11/14 05:50:14;;;;;;;58.45;32.13;;;9.30;99.90;;;;;;5062555;28;20042;-77
2021/11/14 05:52:40;;;;;;;66.18;33.05;;;9.30;99.90;;;;;;5064469;28;20374;-77
2021/11/14 05:55:07;;;;;;;61.78;31.42;;;9.30;99.90;;;;;;5063119;28;20047;-76
2021/11/14 05:57:44;;;;;;;59.25;31.15;;;9.30;99.90;;;;;;5090077;28;20473;-77
2021/11/14 06:00:14;;;;;;;60.47;30.45;;;9.30;99.90;;;;;;5065580;28;20051;-77
2021/11/14 06:02:44;;;;;;;60.10;30.15;;;9.40;99.90;;;;;;5057329;28;20115;-77
2021/11/14 06:05:15;;;;;;;59.55;31.80;;;9.30;99.90;;;;;;5059695;28;20028;-77
2021/11/14 06:07:42;;;;;;;59.95;29.90;;;9.40;99.90;;;;;;5054205;28;20044;-77
2021/11/14 06:10:08;;;;;;;54.88;29.30;;;9.30;99.90;;;;;;5063167;28;20040;-77
2021/11/14 06:12:35;;;;;;;57.00;30.08;;;9.30;99.90;;;;;;5059134;28;20482;-77
2021/11/14 06:15:00;;;;;;;48.85;27.75;;;9.30;99.90;;;;;;5058860;28;20612;-77
2021/11/14 06:17:26;;;;;;;65.70;30.38;;;9.30;99.90;;;;;;5055825;28;20045;-77
2021/11/14 06:19:52;;;;;;;60.58;30.58;;;9.20;99.90;;;;;;5057149;28;20055;-77
2021/11/14 06:22:19;;;;;;;61.17;30.17;;;9.20;99.90;;;;;;5054699;28;20479;-77
2021/11/14 06:24:46;;;;;;;58.65;29.60;;;9.30;99.90;;;;;;5057117;28;20055;-77
2021/11/14 06:27:12;;;;;;;68.07;31.63;;;9.20;99.90;;;;;;5053519;28;20049;-77
2021/11/14 06:29:37;;;;;;;63.67;30.92;;;9.30;99.90;;;;;;5058981;28;20106;-77
2021/11/14 06:32:03;;;;;;;64.40;32.47;;;9.20;99.90;;;;;;5058575;28;20436;-77
2021/11/14 06:34:29;;;;;;;71.63;33.63;;;9.20;99.90;;;;;;5056615;28;20180;-77
2021/11/14 06:36:56;;;;;;;70.53;32.22;;;9.20;99.90;;;;;;5058840;28;20066;-77
2021/11/14 06:39:22;;;;;;;62.90;30.98;;;9.20;99.90;;;;;;5057433;28;20040;-77
2021/11/14 06:41:47;;;;;;;73.15;34.28;;;9.10;99.90;;;;;;5059692;28;20050;-77
2021/11/14 06:44:13;;;;;;;68.95;32.70;;;9.20;99.90;;;;;;5065719;28;20078;-77
2021/11/14 06:46:39;;;;;;;62.13;30.58;;;9.10;99.90;;;;;;5060265;28;20087;-77
2021/11/14 06:49:05;;;;;;;69.15;31.85;;;9.20;99.90;;;;;;5061973;28;20048;-77
2021/11/14 06:51:31;;;;;;;78.85;35.95;;;9.10;99.90;;;;;;5062932;28;20052;-77
2021/11/14 06:53:57;;;;;;;57.28;30.48;;;9.10;99.90;;;;;;5066184;28;20045;-77
2021/11/14 06:56:23;;;;;;;58.42;30.05;;;9.10;99.90;;;;;;5063073;28;20478;-77
2021/11/14 06:58:49;;;;;;;72.78;34.17;;;9.20;99.90;;;;;;5060483;28;20169;-77
2021/11/14 07:01:15;;;;;;;62.50;31.08;;;9.10;99.90;;;;;;5063689;28;20195;-77
2021/11/14 07:03:41;;;;;;;63.00;30.20;;;9.10;99.90;;;;;;5064506;28;20044;-77
2021/11/14 07:06:07;;;;;;;59.80;30.23;;;9.10;99.90;;;;;;5093782;28;20041;-77
2021/11/14 07:08:33;;;;;;;62.50;29.98;;;9.10;99.90;;;;;;5058341;28;20040;-77
2021/11/14 07:11:00;;;;;;;53.45;27.83;;;9.10;99.90;;;;;;5063548;28;20029;-77
2021/11/14 07:13:26;;;;;;;51.72;28.17;;;9.10;99.90;;;;;;5060080;28;20405;-77
2021/11/14 07:15:52;;;;;;;43.90;25.05;;;9.00;99.90;;;;;;5060267;28;20503;-77
2021/11/14 07:18:18;;;;;;;47.28;25.48;;;9.10;99.90;;;;;;5058819;28;20040;-77
2021/11/14 07:20:43;;;;;;;37.97;22.67;;;9.10;99.90;;;;;;5065060;28;20051;-77
2021/11/14 07:23:09;;;;;;;39.88;23.55;;;9.10;99.90;;;;;;5069464;28;20066;-77
2021/11/14 07:25:35;;;;;;;39.10;23.50;;;9.00;99.90;;;;;;5061842;28;20569;-77
2021/11/14 07:28:02;;;;;;;37.95;23.58;;;9.10;99.90;;;;;;5061656;28;20395;-77
2021/11/14 07:30:28;;;;;;;39.20;22.50;;;9.00;99.90;;;;;;5094922;28;20055;-77
2021/11/14 07:32:54;;;;;;;38.33;23.75;;;9.00;99.90;;;;;;5062048;28;20052;-77
2021/11/14 07:35:23;;;;;;;39.15;23.25;;;9.00;99.90;;;;;;5059339;28;20048;-77
2021/11/14 07:37:49;;;;;;;34.53;22.13;;;9.00;99.90;;;;;;5057833;28;20167;-77
2021/11/14 07:40:17;;;;;;;35.13;21.40;;;9.00;99.90;;;;;;5094369;28;20044;-77
2021/11/14 07:42:46;;;;;;;45.15;24.33;;;9.00;99.90;;;;;;5061906;28;20119;-77
2021/11/14 07:45:14;;;;;;;47.65;26.60;;;9.10;99.90;;;;;;5061946;28;20036;-77
2021/11/14 07:47:40;;;;;;;48.30;25.77;;;9.10;99.90;;;;;;5057195;28;20079;-77
2021/11/14 07:50:08;;;;;;;46.05;23.20;;;9.10;99.90;;;;;;5059501;28;20488;-77
2021/11/14 07:52:33;;;;;;;49.10;25.02;;;9.10;99.90;;;;;;5058436;28;20041;-77
2021/11/14 07:54:59;;;;;;;47.03;24.05;;;9.00;99.90;;;;;;5059689;28;20094;-77
2021/11/14 07:57:26;;;;;;;40.58;22.80;;;9.00;99.90;;;;;;5089749;28;20056;-77
2021/11/14 07:59:52;;;;;;;41.65;23.10;;;9.00;99.90;;;;;;5058807;28;20048;-76
2021/11/14 08:02:18;;;;;;;40.80;21.55;;;9.00;99.90;;;;;;5061997;28;20035;-77
2021/11/14 08:04:44;;;;;;;39.47;19.73;;;9.00;99.90;;;;;;5063813;28;20037;-77
2021/11/14 08:07:16;;;;;;;39.08;20.00;;;9.10;99.90;;;;;;5059312;28;20028;-78
2021/11/14 08:09:41;;;;;;;34.17;20.08;;;9.10;99.90;;;;;;5059765;28;20121;-77
2021/11/14 08:12:08;;;;;;;33.83;19.40;;;9.00;99.90;;;;;;5061462;28;20065;-77
2021/11/14 08:14:33;;;;;;;38.25;20.40;;;9.00;99.90;;;;;;5061096;28;20141;-77
2021/11/14 08:16:59;;;;;;;39.50;21.25;;;9.10;99.90;;;;;;5062546;28;20530;-77
2021/11/14 08:19:24;;;;;;;36.58;19.77;;;9.00;99.90;;;;;;5060312;28;20056;-77
2021/11/14 08:21:50;;;;;;;44.88;21.85;;;9.10;99.90;;;;;;5061454;28;20167;-77
2021/11/14 08:24:16;;;;;;;37.17;18.77;;;9.10;99.90;;;;;;5072087;28;20036;-77
2021/11/14 08:26:42;;;;;;;32.95;18.13;;;9.00;99.90;;;;;;5062515;28;20072;-77
2021/11/14 08:29:07;;;;;;;35.88;18.27;;;9.10;99.90;;;;;;5059790;28;20044;-77
2021/11/14 08:31:33;;;;;;;32.75;17.67;;;9.10;99.90;;;;;;5062542;28;20043;-77
2021/11/14 08:34:00;;;;;;;30.75;16.38;;;9.10;99.90;;;;;;5060723;28;20406;-77
2021/11/14 08:36:27;;;;;;;36.03;17.30;;;9.10;99.90;;;;;;5061268;28;20137;-77
2021/11/14 08:38:54;;;;;;;33.25;18.08;;;9.10;99.90;;;;;;5058059;28;20123;-77
2021/11/14 08:41:20;;;;;;;33.92;17.80;;;9.10;99.90;;;;;;5061926;28;20080;-77
2021/11/14 08:43:46;;;;;;;33.38;17.42;;;9.10;99.90;;;;;;5059181;28;20896;-77
2021/11/14 08:46:11;;;;;;;28.70;17.65;;;9.20;99.90;;;;;;5058033;28;20048;-77
2021/11/14 08:48:38;;;;;;;35.08;18.73;;;9.10;99.90;;;;;;5057319;28;20907;-77
2021/11/14 08:51:04;;;;;;;33.65;18.90;;;9.20;99.90;;;;;;5061980;28;20052;-77
2021/11/14 08:53:33;;;;;;;35.97;19.45;;;9.10;99.90;;;;;;5062117;28;20801;-77
2021/11/14 08:56:00;;;;;;;45.00;22.17;;;9.20;99.90;;;;;;5058481;28;20041;-77
2021/11/14 08:58:25;;;;;;;45.63;22.48;;;9.10;99.90;;;;;;5057264;28;20040;-77
2021/11/14 09:00:53;;;;;;;41.45;22.33;;;9.20;99.90;;;;;;5065914;28;20093;-77
2021/11/14 09:03:20;;;;;;;44.17;22.20;;;9.20;99.90;;;;;;5062102;28;20032;-77
2021/11/14 09:05:46;;;;;;;29.95;19.48;;;9.20;99.90;;;;;;5064105;28;20068;-77
2021/11/14 09:08:12;;;;;;;36.17;21.23;;;9.10;99.90;;;;;;5058763;28;20037;-78
2021/11/14 09:10:40;;;;;;;33.33;22.02;;;9.10;99.90;;;;;;5063847;28;20040;-77
2021/11/14 09:13:07;;;;;;;34.13;21.40;;;9.20;99.90;;;;;;5063461;28;20454;-77
2021/11/14 09:15:33;;;;;;;33.20;21.25;;;9.20;99.90;;;;;;5063873;28;20035;-77
2021/11/14 09:18:00;;;;;;;34.38;22.23;;;9.20;99.90;;;;;;5059840;28;20668;-77
2021/11/14 09:20:28;;;;;;;32.05;21.40;;;9.20;99.90;;;;;;5061615;28;20063;-77
2021/11/14 09:22:54;;;;;;;30.50;22.17;;;9.20;99.90;;;;;;5063166;28;20394;-77
2021/11/14 09:25:21;;;;;;;35.00;22.05;;;9.30;99.90;;;;;;5062983;28;20047;-77
2021/11/14 09:27:51;;;;;;;32.70;23.55;;;9.20;99.90;;;;;;5070312;28;20044;-77
2021/11/14 09:30:18;;;;;;;30.27;22.08;;;9.30;99.90;;;;;;5051136;28;20052;-77
2021/11/14 09:32:45;;;;;;;35.63;23.13;;;9.40;99.90;;;;;;5061600;28;20068;-77
2021/11/14 09:35:11;;;;;;;31.73;21.17;;;9.30;99.90;;;;;;5063628;28;20086;-77
2021/11/14 09:37:37;;;;;;;29.80;20.75;;;9.40;99.90;;;;;;5059245;28;20040;-77
2021/11/14 09:40:05;;;;;;;32.40;22.55;;;9.40;99.90;;;;;;5060264;28;20036;-77
2021/11/14 09:42:32;;;;;;;33.67;22.33;;;9.40;99.90;;;;;;5095595;28;20441;-77
2021/11/14 09:44:58;;;;;;;29.77;21.60;;;9.40;99.90;;;;;;5063011;28;20082;-77
2021/11/14 09:47:24;;;;;;;35.05;24.38;;;9.40;99.90;;;;;;5058062;28;20036;-77
2021/11/14 09:49:51;;;;;;;32.72;22.25;;;9.40;99.90;;;;;;5058138;28;20505;-77
2021/11/14 09:52:17;;;;;;;29.77;21.27;;;9.40;99.90;;;;;;5063369;28;20509;-76
2021/11/14 09:54:43;;;;;;;33.08;22.60;;;9.30;99.90;;;;;;5063461;28;20036;-77
2021/11/14 09:57:09;;;;;;;32.22;22.73;;;9.40;99.90;;;;;;5058978;28;20462;-77
2021/11/14 09:59:35;;;;;;;33.20;24.52;;;9.40;99.90;;;;;;5059261;28;20036;-74
2021/11/14 10:02:03;;;;;;;34.45;23.70;;;9.40;99.90;;;;;;5061670;28;20036;-78
2021/11/14 10:04:29;;;;;;;31.35;23.20;;;9.40;99.90;;;;;;5063728;28;20123;-78
2021/11/14 10:07:03;;;;;;;34.03;23.73;;;9.40;99.90;;;;;;5065289;28;20151;-78
2021/11/14 10:09:32;;;;;;;35.97;23.65;;;9.40;99.90;;;;;;5059588;28;20044;-78
2021/11/14 10:12:25;;;;;;;32.33;22.30;;;9.40;99.90;;;;;;5062772;28;20044;-78
2021/11/14 10:15:09;;;;;;;36.90;24.10;;;9.50;99.90;;;;;;5061625;28;20048;-78
2021/11/14 10:17:36;;;;;;;32.85;22.90;;;9.50;99.90;;;;;;5087252;28;20135;-78
2021/11/14 10:20:12;;;;;;;36.63;25.10;;;9.40;99.90;;;;;;5064112;28;20585;-78
2021/11/14 10:22:44;;;;;;;32.13;24.27;;;9.40;99.90;;;;;;5062150;28;20041;-78
2021/11/14 10:25:12;;;;;;;34.85;24.48;;;9.40;99.90;;;;;;5061679;28;20040;-78
2021/11/14 10:27:38;;;;;;;32.78;24.35;;;9.40;99.90;;;;;;5058188;28;20048;-78
2021/11/14 10:30:06;;;;;;;33.35;24.77;;;9.40;99.90;;;;;;5063324;28;20531;-78
2021/11/14 10:32:33;;;;;;;31.75;23.90;;;9.50;99.90;;;;;;5060118;28;20056;-78
2021/11/14 10:35:01;;;;;;;30.95;25.10;;;9.50;99.90;;;;;;5064968;28;20166;-78
2021/11/14 10:37:28;;;;;;;34.38;26.60;;;9.50;99.90;;;;;;5061706;28;20044;-78
2021/11/14 10:39:57;;;;;;;34.70;25.48;;;9.50;99.90;;;;;;5062104;28;20045;-78
2021/11/14 10:42:29;;;;;;;37.50;26.90;;;9.50;99.90;;;;;;5062459;28;20044;-78
2021/11/14 10:44:58;;;;;;;35.30;26.65;;;9.50;99.90;;;;;;5063267;28;20044;-78
2021/11/14 10:47:25;;;;;;;34.00;25.73;;;9.50;99.90;;;;;;5059252;28;20048;-78
2021/11/14 10:49:53;;;;;;;39.95;28.40;;;9.50;99.90;;;;;;5059828;28;20486;-78
2021/11/14 10:52:20;;;;;;;36.42;26.10;;;9.50;99.90;;;;;;5061054;28;20586;-78
2021/11/14 10:54:54;;;;;;;32.63;24.88;;;9.60;99.90;;;;;;5060327;28;20364;-78
2021/11/14 10:57:26;;;;;;;35.03;25.67;;;9.60;99.90;;;;;;5059299;28;20155;-78
2021/11/14 10:59:52;;;;;;;36.30;27.55;;;9.60;99.90;;;;;;5058564;28;20059;-78
2021/11/14 11:02:20;;;;;;;38.17;27.63;;;9.50;99.90;;;;;;5059212;28;20474;-78
2021/11/14 11:04:47;;;;;;;38.63;27.45;;;9.60;99.90;;;;;;5058413;28;20040;-77
2021/11/14 11:07:13;;;;;;;39.80;26.88;;;9.60;99.90;;;;;;5059399;28;20037;-78
2021/11/14 11:09:39;;;;;;;38.30;26.80;;;9.60;99.90;;;;;;5057817;28;20123;-78
2021/11/14 11:12:16;;;;;;;35.72;26.38;;;9.60;99.90;;;;;;5062159;28;20053;-78
2021/11/14 11:15:00;;;;;;;34.30;25.42;;;9.60;99.90;;;;;;5058039;28;20044;-78
2021/11/14 11:17:28;;;;;;;37.67;26.17;;;9.60;99.90;;;;;;5059340;28;20049;-78
2021/11/14 11:19:55;;;;;;;37.60;26.00;;;9.60;99.90;;;;;;5062284;28;20055;-78
2021/11/14 11:22:23;;;;;;;31.85;24.50;;;9.70;99.90;;;;;;5060606;28;20044;-78
2021/11/14 11:24:54;;;;;;;36.47;24.52;;;9.70;99.90;;;;;;5063009;28;20071;-78
2021/11/14 11:27:20;;;;;;;33.53;24.75;;;9.80;99.90;;;;;;5061614;28;20036;-78
2021/11/14 11:29:48;;;;;;;34.55;24.65;;;9.80;99.90;;;;;;5063720;28;20121;-78
2021/11/14 11:32:17;;;;;;;35.28;25.52;;;9.80;99.90;;;;;;5067068;28;20044;-78
2021/11/14 11:34:43;;;;;;;41.35;27.13;;;9.80;99.90;;;;;;5077330;28;20131;-78
2021/11/14 11:37:10;;;;;;;37.60;27.05;;;9.80;99.90;;;;;;5063141;28;20429;-78
2021/11/14 11:39:37;;;;;;;36.90;27.27;;;9.80;99.90;;;;;;5066144;28;20047;-78
2021/11/14 11:42:03;;;;;;;33.97;26.35;;;9.70;99.90;;;;;;5065074;28;20058;-78
2021/11/14 11:44:31;;;;;;;37.13;26.98;;;9.80;99.90;;;;;;5066531;28;20040;-78
2021/11/14 11:47:04;;;;;;;37.72;26.38;;;9.80;99.90;;;;;;5063275;28;20062;-78
2021/11/14 11:49:31;;;;;;;35.80;27.23;;;9.80;99.90;;;;;;5062601;28;20041;-78
2021/11/14 11:51:59;;;;;;;41.08;29.10;;;9.80;99.90;;;;;;5063826;28;20095;-78
2021/11/14 11:54:30;;;;;;;49.72;33.13;;;9.80;99.90;;;;;;5066819;28;20102;-78
2021/11/14 11:56:56;;;;;;;57.53;34.35;;;9.80;99.90;;;;;;5066823;28;20091;-78
2021/11/14 11:59:36;;;;;;;49.58;33.00;;;9.80;99.90;;;;;;5063291;28;21009;-78
2021/11/14 12:02:06;;;;;;;54.22;34.08;;;9.90;99.90;;;;;;5066703;28;20064;-78
2021/11/14 12:04:40;;;;;;;60.03;32.38;;;9.90;99.90;;;;;;5063152;28;20170;-78
2021/11/14 12:07:12;;;;;;;51.75;34.03;;;9.90;99.90;;;;;;5063791;28;20045;-78
2021/11/14 12:09:41;;;;;;;49.00;32.20;;;9.80;99.90;;;;;;5062434;28;20098;-78
2021/11/14 12:12:27;;;;;;;47.97;31.95;;;9.80;99.90;;;;;;5064140;28;20514;-78
2021/11/14 12:15:30;;;;;;;45.75;31.63;;;9.90;99.90;;;;;;5068148;28;20044;-78
2021/11/14 12:18:00;;;;;;;54.83;32.97;;;9.80;99.90;;;;;;5060840;28;20136;-78
2021/11/14 12:20:55;;;;;;;46.38;29.85;;;9.80;99.90;;;;;;5049590;28;20057;-78
2021/11/14 12:23:27;;;;;;;47.35;30.30;;;9.80;99.90;;;;;;5064299;28;20052;-77
2021/11/14 12:25:56;;;;;;;44.38;29.80;;;9.80;99.90;;;;;;5065007;28;20060;-78
2021/11/14 12:28:28;;;;;;;49.00;32.33;;;9.80;99.90;;;;;;5060299;28;20044;-78
2021/11/14 12:30:57;;;;;;;48.17;31.25;;;9.70;99.90;;;;;;5064947;28;20040;-77
2021/11/14 12:33:26;;;;;;;54.97;32.78;;;9.70;99.90;;;;;;5060753;28;20056;-78
2021/11/14 12:35:54;;;;;;;46.92;30.15;;;9.70;99.90;;;;;;5094187;28;20070;-77